Time;durP1;ratioP1;P1;durP2;ratioP2;P2;SDS_P1;SDS_P2;PMS_P1;PMS_P2;Temp;Humidity;BMP_temperature;BMP_pressure;BME280_temperature;BME280_humidity;BME280_pressure;Samples;Min_cycle;Max_cycle;Signal;HPM_P1;HPM_P2
2023/10/30 00:01:56;;;;;;;6.18;2.28;;;;;;;;;;10257669;28;20064;-65
2023/10/30 00:06:54;;;;;;;3.72;2.08;;;;;;;;;;10257801;28;20088;-65
2023/10/30 00:11:54;;;;;;;6.63;1.90;;;;;;;;;;10257242;28;20100;-64
2023/10/30 00:16:54;;;;;;;5.15;1.92;;;;;;;;;;10254818;28;20084;-63
2023/10/30 00:21:55;;;;;;;3.10;1.80;;;;;;;;;;10256728;28;20068;-65
2023/10/30 00:26:54;;;;;;;3.90;2.10;;;;;;;;;;10255757;28;20069;-64
2023/10/30 00:31:53;;;;;;;6.75;2.53;;;;;;;;;;10255207;28;20080;-65
2023/10/30 00:36:51;;;;;;;3.45;2.00;;;;;;;;;;10250225;28;20049;-64
2023/10/30 00:41:49;;;;;;;4.90;2.20;;;;;;;;;;10255904;28;20072;-65
2023/10/30 00:46:51;;;;;;;5.82;3.35;;;;;;;;;;10256605;28;20071;-64
2023/10/30 00:51:50;;;;;;;3.20;2.25;;;;;;;;;;10255745;28;20084;-64
2023/10/30 00:56:48;;;;;;;7.28;2.55;;;;;;;;;;10270184;28;20085;-65
2023/10/30 01:01:46;;;;;;;2.35;1.60;;;;;;;;;;10271154;28;20085;-64
2023/10/30 01:06:46;;;;;;;5.13;2.03;;;;;;;;;;10255137;28;20076;-64
2023/10/30 01:11:44;;;;;;;3.92;1.48;;;;;;;;;;10254445;28;20083;-64
2023/10/30 01:16:42;;;;;;;2.90;1.85;;;;;;;;;;10254791;28;20096;-64
2023/10/30 01:21:40;;;;;;;3.47;1.90;;;;;;;;;;10254695;28;20087;-64
2023/10/30 01:26:40;;;;;;;3.15;1.80;;;;;;;;;;10268221;28;20049;-65
2023/10/30 01:31:39;;;;;;;1.60;1.48;;;;;;;;;;10249739;28;20069;-65
2023/10/30 01:36:38;;;;;;;6.95;2.80;;;;;;;;;;10254901;28;20513;-64
2023/10/30 01:41:36;;;;;;;7.50;3.40;;;;;;;;;;10269677;28;20072;-64
2023/10/30 01:46:36;;;;;;;7.40;3.88;;;;;;;;;;10255870;28;20068;-64
2023/10/30 01:51:34;;;;;;;4.82;3.08;;;;;;;;;;10255511;28;20100;-64
2023/10/30 01:56:34;;;;;;;5.82;2.72;;;;;;;;;;10252715;28;20502;-64
2023/10/30 02:01:33;;;;;;;7.50;2.65;;;;;;;;;;10269881;28;20087;-64
2023/10/30 02:06:33;;;;;;;3.88;2.53;;;;;;;;;;10254615;28;20496;-64
2023/10/30 02:11:31;;;;;;;6.00;2.50;;;;;;;;;;10254451;28;20507;-65
2023/10/30 02:16:29;;;;;;;7.18;3.40;;;;;;;;;;10262407;28;20173;-64
2023/10/30 02:21:28;;;;;;;3.25;2.72;;;;;;;;;;10259621;28;20071;-64
2023/10/30 02:26:28;;;;;;;1.92;1.83;;;;;;;;;;10258660;28;20459;-64
2023/10/30 02:31:26;;;;;;;5.82;2.80;;;;;;;;;;10261234;28;20065;-65
2023/10/30 02:36:24;;;;;;;10.65;5.13;;;;;;;;;;10260048;28;20699;-64
2023/10/30 02:41:22;;;;;;;8.02;4.38;;;;;;;;;;10260661;28;20073;-64
2023/10/30 02:46:24;;;;;;;11.55;5.35;;;;;;;;;;10255309;28;20088;-64
2023/10/30 02:51:22;;;;;;;5.93;3.28;;;;;;;;;;10255664;28;20087;-64
2023/10/30 02:56:20;;;;;;;5.63;2.25;;;;;;;;;;10273581;28;20125;-64
2023/10/30 03:01:20;;;;;;;5.65;4.00;;;;;;;;;;10257826;28;20514;-64
2023/10/30 03:06:20;;;;;;;8.60;4.65;;;;;;;;;;10260081;28;20534;-64
2023/10/30 03:11:18;;;;;;;6.82;4.95;;;;;;;;;;10257414;28;20072;-64
2023/10/30 03:16:17;;;;;;;8.25;3.60;;;;;;;;;;10256551;28;20088;-64
2023/10/30 03:21:16;;;;;;;3.72;2.30;;;;;;;;;;10257601;28;20069;-65
2023/10/30 03:26:16;;;;;;;7.50;3.78;;;;;;;;;;10257961;28;20073;-64
2023/10/30 03:31:14;;;;;;;4.90;2.17;;;;;;;;;;10255413;28;20444;-65
2023/10/30 03:36:19;;;;;;;4.22;1.70;;;;;;;;;;10256146;28;20076;-64
2023/10/30 03:41:20;;;;;;;5.18;2.30;;;;;;;;;;10252824;28;20447;-64
2023/10/30 03:46:18;;;;;;;4.25;2.10;;;;;;;;;;10272103;28;20084;-65
2023/10/30 03:51:16;;;;;;;3.80;2.20;;;;;;;;;;10267054;28;20526;-65
2023/10/30 03:56:14;;;;;;;3.47;2.60;;;;;;;;;;10256781;28;20075;-65
2023/10/30 04:01:14;;;;;;;4.18;2.85;;;;;;;;;;10257830;28;20491;-64
2023/10/30 04:06:12;;;;;;;7.05;3.20;;;;;;;;;;10256810;28;20061;-65
2023/10/30 04:11:13;;;;;;;4.95;3.25;;;;;;;;;;10255559;28;20061;-65
2023/10/30 04:16:11;;;;;;;4.80;2.70;;;;;;;;;;10254553;28;20073;-65
2023/10/30 04:21:11;;;;;;;8.90;3.72;;;;;;;;;;10255085;28;20080;-64
2023/10/30 04:26:09;;;;;;;4.57;2.50;;;;;;;;;;10255472;28;20105;-65
2023/10/30 04:31:09;;;;;;;7.38;3.67;;;;;;;;;;10256802;28;20069;-64
2023/10/30 04:36:07;;;;;;;7.45;3.55;;;;;;;;;;10254167;28;20079;-64
2023/10/30 04:41:07;;;;;;;6.28;2.92;;;;;;;;;;10254900;28;20470;-65
2023/10/30 04:46:06;;;;;;;7.40;3.03;;;;;;;;;;10250151;28;20073;-65
2023/10/30 04:51:04;;;;;;;5.57;3.28;;;;;;;;;;10255107;28;20091;-65
2023/10/30 04:56:03;;;;;;;7.50;3.92;;;;;;;;;;10253373;28;20065;-65
2023/10/30 05:01:08;;;;;;;11.95;5.80;;;;;;;;;;10256100;28;20075;-65
2023/10/30 05:06:06;;;;;;;14.88;6.25;;;;;;;;;;10253933;28;20065;-65
2023/10/30 05:11:04;;;;;;;11.73;5.63;;;;;;;;;;10255447;28;20088;-65
2023/10/30 05:16:03;;;;;;;15.98;5.70;;;;;;;;;;10252921;28;20069;-65
2023/10/30 05:21:03;;;;;;;31.35;5.95;;;;;;;;;;10254791;28;20503;-64
2023/10/30 05:26:01;;;;;;;11.30;4.57;;;;;;;;;;10254679;28;20068;-65
2023/10/30 05:30:59;;;;;;;13.35;4.55;;;;;;;;;;10254914;28;20065;-64
2023/10/30 05:35:57;;;;;;;9.95;4.13;;;;;;;;;;10254546;28;20124;-64
2023/10/30 05:40:57;;;;;;;15.93;4.07;;;;;;;;;;10256708;28;20065;-64
2023/10/30 05:45:56;;;;;;;10.98;3.42;;;;;;;;;;10258631;28;20061;-64
2023/10/30 05:50:54;;;;;;;15.15;4.13;;;;;;;;;;10263799;28;20092;-63
2023/10/30 05:55:53;;;;;;;17.75;5.20;;;;;;;;;;10259463;28;20521;-64
2023/10/30 06:00:54;;;;;;;14.52;4.13;;;;;;;;;;10259736;28;20073;-64
2023/10/30 06:05:52;;;;;;;14.10;5.05;;;;;;;;;;10258937;28;20474;-65
2023/10/30 06:10:51;;;;;;;16.10;3.70;;;;;;;;;;10267077;28;20544;-65
2023/10/30 06:15:50;;;;;;;11.93;3.25;;;;;;;;;;10265893;28;20085;-65
2023/10/30 06:20:50;;;;;;;5.07;3.30;;;;;;;;;;10262004;28;20072;-64
2023/10/30 06:25:51;;;;;;;7.30;4.10;;;;;;;;;;10262787;28;20147;-65
2023/10/30 06:30:50;;;;;;;21.42;8.25;;;;;;;;;;10262798;28;20068;-65
2023/10/30 06:35:55;;;;;;;7.93;5.38;;;;;;;;;;10257252;28;20061;-64
2023/10/30 06:40:54;;;;;;;7.28;2.90;;;;;;;;;;10267728;28;20072;-63
2023/10/30 06:45:58;;;;;;;5.93;2.90;;;;;;;;;;10268048;28;20077;-65
2023/10/30 06:50:58;;;;;;;18.88;7.45;;;;;;;;;;10256188;28;20076;-65
2023/10/30 06:55:56;;;;;;;19.73;7.15;;;;;;;;;;10265615;28;20076;-65
2023/10/30 07:01:01;;;;;;;10.15;5.75;;;;;;;;;;10257655;28;20084;-67
2023/10/30 07:06:00;;;;;;;16.90;5.43;;;;;;;;;;10261940;28;20072;-64
2023/10/30 07:10:59;;;;;;;12.00;5.22;;;;;;;;;;10264321;28;20065;-64
2023/10/30 07:15:57;;;;;;;15.88;5.45;;;;;;;;;;10262018;28;20087;-64
2023/10/30 07:20:55;;;;;;;9.70;5.28;;;;;;;;;;10262746;28;20075;-66
2023/10/30 07:25:55;;;;;;;11.60;4.35;;;;;;;;;;10262704;28;20088;-65
2023/10/30 07:30:55;;;;;;;7.80;4.72;;;;;;;;;;10259013;28;20072;-65
2023/10/30 07:35:54;;;;;;;9.20;4.00;;;;;;;;;;10251934;28;20076;-65
2023/10/30 07:40:52;;;;;;;10.02;4.75;;;;;;;;;;10251876;28;20065;-64
2023/10/30 07:45:52;;;;;;;13.48;4.32;;;;;;;;;;10254648;28;20084;-64
2023/10/30 07:50:51;;;;;;;13.30;5.53;;;;;;;;;;10252056;28;20084;-64
2023/10/30 07:55:50;;;;;;;10.57;4.28;;;;;;;;;;10259653;28;20472;-65
2023/10/30 08:00:49;;;;;;;12.20;5.00;;;;;;;;;;10251022;28;20310;-65
2023/10/30 08:06:00;;;;;;;9.13;5.20;;;;;;;;;;10250398;28;20115;-63
2023/10/30 08:10:58;;;;;;;13.52;5.18;;;;;;;;;;10251679;28;20071;-64
2023/10/30 08:15:56;;;;;;;11.75;5.15;;;;;;;;;;10255965;28;20483;-65
2023/10/30 08:20:57;;;;;;;20.00;5.78;;;;;;;;;;10256613;28;20065;-64
2023/10/30 08:26:06;;;;;;;14.88;4.88;;;;;;;;;;10256452;28;20068;-64
2023/10/30 08:31:05;;;;;;;13.68;6.63;;;;;;;;;;10256661;28;20069;-65
2023/10/30 08:36:03;;;;;;;13.30;5.40;;;;;;;;;;10255833;28;20083;-65
2023/10/30 08:41:01;;;;;;;10.55;5.28;;;;;;;;;;10256258;28;20077;-64
2023/10/30 08:46:01;;;;;;;13.77;6.13;;;;;;;;;;10257146;28;20073;-64
2023/10/30 08:50:59;;;;;;;15.85;8.52;;;;;;;;;;10255566;28;20076;-65
2023/10/30 08:55:57;;;;;;;15.27;7.70;;;;;;;;;;10261332;28;20510;-65
2023/10/30 09:00:58;;;;;;;16.17;7.40;;;;;;;;;;10254159;28;20068;-65
2023/10/30 09:05:57;;;;;;;10.02;3.47;;;;;;;;;;10250899;28;20069;-64
2023/10/30 09:10:56;;;;;;;18.70;5.85;;;;;;;;;;10251450;28;20083;-65
2023/10/30 09:15:54;;;;;;;8.75;4.30;;;;;;;;;;10253963;28;20081;-64
2023/10/30 09:20:52;;;;;;;8.68;3.97;;;;;;;;;;10256573;28;20341;-65
2023/10/30 09:25:52;;;;;;;13.05;3.40;;;;;;;;;;10262423;28;20453;-65
2023/10/30 09:30:50;;;;;;;6.95;3.75;;;;;;;;;;10259658;28;20049;-64
2023/10/30 09:35:49;;;;;;;8.02;3.05;;;;;;;;;;10262249;28;20571;-64
2023/10/30 09:40:57;;;;;;;8.00;3.42;;;;;;;;;;10261551;28;20072;-64
2023/10/30 09:45:58;;;;;;;5.50;2.75;;;;;;;;;;10255226;28;20084;-64
2023/10/30 09:50:58;;;;;;;7.65;4.05;;;;;;;;;;10256534;28;20081;-64
2023/10/30 09:55:57;;;;;;;11.35;3.42;;;;;;;;;;10257070;28;20079;-64
2023/10/30 10:00:55;;;;;;;9.75;3.00;;;;;;;;;;10261775;28;20072;-64
2023/10/30 10:05:58;;;;;;;6.40;3.63;;;;;;;;;;10261127;28;20049;-64
2023/10/30 10:10:57;;;;;;;7.63;4.18;;;;;;;;;;10262971;28;20073;-63
2023/10/30 10:15:56;;;;;;;7.55;3.95;;;;;;;;;;10260725;28;20081;-65
2023/10/30 10:20:55;;;;;;;7.07;3.92;;;;;;;;;;10260429;28;20087;-65
2023/10/30 10:25:56;;;;;;;12.25;4.40;;;;;;;;;;10259320;28;20079;-65
2023/10/30 10:31:04;;;;;;;12.02;5.55;;;;;;;;;;10259004;28;20470;-65
2023/10/30 10:36:03;;;;;;;20.13;5.80;;;;;;;;;;10259163;28;20493;-64
2023/10/30 10:41:07;;;;;;;18.02;5.57;;;;;;;;;;10260408;28;20065;-65
2023/10/30 10:46:06;;;;;;;9.23;4.43;;;;;;;;;;10260400;28;20080;-64
2023/10/30 10:51:05;;;;;;;6.75;3.75;;;;;;;;;;10259722;28;20076;-64
2023/10/30 10:56:07;;;;;;;9.55;4.70;;;;;;;;;;10254307;28;20479;-64
2023/10/30 11:01:07;;;;;;;11.55;4.82;;;;;;;;;;10254523;28;20080;-65
2023/10/30 11:06:08;;;;;;;6.35;4.07;;;;;;;;;;10260178;28;20068;-65
2023/10/30 11:11:10;;;;;;;10.10;5.00;;;;;;;;;;10257491;28;20073;-65
2023/10/30 11:16:13;;;;;;;8.20;5.47;;;;;;;;;;10256524;28;20549;-64
2023/10/30 11:21:12;;;;;;;19.95;5.20;;;;;;;;;;10257212;28;20075;-64
2023/10/30 11:26:11;;;;;;;9.77;4.93;;;;;;;;;;10257910;28;20183;-65
2023/10/30 11:31:10;;;;;;;10.00;4.57;;;;;;;;;;10258547;28;20069;-65
2023/10/30 11:36:26;;;;;;;18.20;4.85;;;;;;;;;;10257801;28;20525;-64
2023/10/30 11:41:25;;;;;;;9.50;5.30;;;;;;;;;;10256553;28;20132;-63
2023/10/30 11:46:25;;;;;;;14.32;4.97;;;;;;;;;;10251228;28;20144;-64
2023/10/30 11:51:24;;;;;;;13.85;9.45;;;;;;;;;;10258147;28;20068;-63
2023/10/30 11:56:23;;;;;;;10.32;4.50;;;;;;;;;;10257052;28;20093;-64
2023/10/30 12:01:22;;;;;;;11.82;4.28;;;;;;;;;;10257503;28;20081;-65
2023/10/30 12:06:21;;;;;;;12.35;4.30;;;;;;;;;;10254664;28;20072;-65
2023/10/30 12:11:20;;;;;;;14.55;5.13;;;;;;;;;;10254265;28;20494;-64
2023/10/30 12:16:18;;;;;;;16.73;12.68;;;;;;;;;;10254038;28;20081;-64
2023/10/30 12:21:24;;;;;;;14.20;9.65;;;;;;;;;;10324622;27;20388;-64
2023/10/30 12:26:23;;;;;;;16.85;3.85;;;;;;;;;;10325446;28;20146;-64
2023/10/30 12:31:22;;;;;;;10.60;3.97;;;;;;;;;;10326428;28;20084;-64
2023/10/30 12:36:31;;;;;;;8.77;4.05;;;;;;;;;;10324843;28;20080;-64
2023/10/30 12:41:30;;;;;;;6.95;2.42;;;;;;;;;;10322621;28;20064;-65
2023/10/30 12:46:28;;;;;;;7.50;2.40;;;;;;;;;;10324909;28;20099;-64
2023/10/30 12:51:26;;;;;;;2.65;1.90;;;;;;;;;;10323210;28;20084;-64
2023/10/30 12:56:26;;;;;;;8.18;2.30;;;;;;;;;;10323378;28;20071;-64
2023/10/30 13:01:24;;;;;;;7.57;2.63;;;;;;;;;;10323256;28;20115;-64
2023/10/30 13:06:23;;;;;;;8.32;3.05;;;;;;;;;;10322723;28;20108;-65
2023/10/30 13:11:21;;;;;;;9.77;4.50;;;;;;;;;;10323082;28;20521;-64
2023/10/30 13:16:21;;;;;;;6.22;3.80;;;;;;;;;;10322115;28;20470;-64
2023/10/30 13:21:19;;;;;;;5.80;2.90;;;;;;;;;;10322305;28;20107;-63
2023/10/30 13:26:18;;;;;;;10.20;3.45;;;;;;;;;;10321793;28;20079;-64
2023/10/30 13:31:16;;;;;;;12.05;4.35;;;;;;;;;;10304018;28;20210;-64
2023/10/30 13:36:16;;;;;;;6.85;4.45;;;;;;;;;;10295333;28;20529;-65
2023/10/30 13:41:14;;;;;;;12.60;3.92;;;;;;;;;;10295509;28;20071;-64
2023/10/30 13:46:12;;;;;;;5.38;4.00;;;;;;;;;;10294177;28;20068;-65
2023/10/30 13:51:11;;;;;;;9.93;5.38;;;;;;;;;;10294553;28;20079;-64
2023/10/30 13:56:10;;;;;;;12.93;6.38;;;;;;;;;;10289800;28;20095;-64
2023/10/30 14:01:09;;;;;;;7.65;4.57;;;;;;;;;;10293358;28;20061;-64
2023/10/30 14:06:07;;;;;;;5.82;3.35;;;;;;;;;;10293407;28;20072;-65
2023/10/30 14:11:05;;;;;;;8.23;3.90;;;;;;;;;;10294980;28;20079;-65
2023/10/30 14:16:05;;;;;;;13.75;3.70;;;;;;;;;;10293940;28;20072;-64
2023/10/30 14:21:04;;;;;;;7.47;3.42;;;;;;;;;;10291354;28;20107;-64
2023/10/30 14:26:02;;;;;;;11.60;3.53;;;;;;;;;;10295402;28;20497;-64
2023/10/30 14:31:01;;;;;;;9.93;3.95;;;;;;;;;;10292346;28;20084;-64
2023/10/30 14:36:00;;;;;;;14.10;4.60;;;;;;;;;;10294441;28;20071;-63
2023/10/30 14:40:59;;;;;;;9.20;4.00;;;;;;;;;;10290948;28;20072;-64
2023/10/30 14:45:57;;;;;;;14.45;4.78;;;;;;;;;;10288350;28;20528;-63
2023/10/30 14:50:56;;;;;;;12.30;4.40;;;;;;;;;;10292494;28;20075;-63
2023/10/30 14:55:56;;;;;;;20.55;5.05;;;;;;;;;;10293818;28;20088;-65
2023/10/30 15:00:54;;;;;;;16.67;5.32;;;;;;;;;;10291696;28;20071;-64
2023/10/30 15:05:54;;;;;;;11.27;4.57;;;;;;;;;;10291286;28;20071;-64
2023/10/30 15:10:53;;;;;;;8.75;5.07;;;;;;;;;;10292174;28;20083;-65
2023/10/30 15:15:52;;;;;;;14.38;7.28;;;;;;;;;;10291208;28;20483;-65
2023/10/30 15:20:51;;;;;;;11.13;5.57;;;;;;;;;;10289693;28;20088;-64
2023/10/30 15:25:49;;;;;;;12.27;5.25;;;;;;;;;;10291520;28;20084;-65
2023/10/30 15:30:51;;;;;;;15.55;5.90;;;;;;;;;;10289411;28;20067;-65
2023/10/30 15:35:51;;;;;;;11.93;4.53;;;;;;;;;;10290830;28;20083;-63
2023/10/30 15:40:50;;;;;;;8.18;3.67;;;;;;;;;;10289909;28;20079;-64
2023/10/30 15:45:48;;;;;;;12.85;4.65;;;;;;;;;;10289435;28;20094;-64
2023/10/30 15:50:46;;;;;;;14.02;6.60;;;;;;;;;;10287993;28;20075;-65
2023/10/30 15:55:47;;;;;;;17.02;6.50;;;;;;;;;;10291929;28;20075;-65
2023/10/30 16:00:50;;;;;;;17.33;7.30;;;;;;;;;;10288226;28;20310;-64
2023/10/30 16:05:48;;;;;;;11.80;6.68;;;;;;;;;;10283620;28;20071;-64
2023/10/30 16:11:05;;;;;;;17.13;7.82;;;;;;;;;;10289646;28;20072;-65
2023/10/30 16:16:07;;;;;;;13.27;7.82;;;;;;;;;;10283319;28;20064;-64
2023/10/30 16:21:05;;;;;;;7.90;4.75;;;;;;;;;;10285867;28;20511;-65
2023/10/30 16:26:08;;;;;;;7.85;3.58;;;;;;;;;;10288718;28;20063;-65
2023/10/30 16:31:06;;;;;;;9.90;3.67;;;;;;;;;;10280427;28;20541;-63
2023/10/30 16:36:05;;;;;;;6.68;3.95;;;;;;;;;;10281640;28;20064;-64
2023/10/30 16:41:04;;;;;;;7.43;3.55;;;;;;;;;;10285622;28;20071;-64
2023/10/30 16:46:05;;;;;;;7.40;3.75;;;;;;;;;;10287891;28;20087;-66
2023/10/30 16:51:04;;;;;;;6.38;3.45;;;;;;;;;;10283657;28;20068;-64
2023/10/30 16:56:02;;;;;;;5.65;2.97;;;;;;;;;;10289411;28;20103;-65
2023/10/30 17:01:00;;;;;;;5.28;3.22;;;;;;;;;;10282784;28;20370;-65
2023/10/30 17:06:00;;;;;;;6.70;3.15;;;;;;;;;;10284920;28;20087;-65
2023/10/30 17:10:58;;;;;;;6.63;2.90;;;;;;;;;;10291520;28;20147;-66
2023/10/30 17:15:56;;;;;;;6.82;2.70;;;;;;;;;;10297722;28;20469;-65
2023/10/30 17:20:55;;;;;;;4.35;3.05;;;;;;;;;;10295638;28;20556;-65
2023/10/30 17:25:55;;;;;;;7.30;3.60;;;;;;;;;;10294093;28;20083;-65
2023/10/30 17:30:53;;;;;;;6.82;3.38;;;;;;;;;;10290326;28;20072;-66
2023/10/30 17:35:51;;;;;;;7.70;3.30;;;;;;;;;;10294836;28;20079;-66
2023/10/30 17:40:51;;;;;;;9.13;3.45;;;;;;;;;;10290952;28;20493;-68
2023/10/30 17:45:51;;;;;;;5.70;3.28;;;;;;;;;;10290248;28;20116;-66
2023/10/30 17:50:49;;;;;;;10.70;4.97;;;;;;;;;;10293448;28;20072;-66
2023/10/30 17:55:49;;;;;;;8.80;4.38;;;;;;;;;;10292064;28;20099;-66
2023/10/30 18:00:47;;;;;;;6.32;4.10;;;;;;;;;;10297765;28;20083;-66
2023/10/30 18:05:47;;;;;;;7.40;3.45;;;;;;;;;;10291376;28;20529;-66
2023/10/30 18:10:45;;;;;;;8.18;3.50;;;;;;;;;;10291122;28;20500;-66
2023/10/30 18:15:44;;;;;;;7.10;3.75;;;;;;;;;;10290720;28;20075;-65
2023/10/30 18:20:43;;;;;;;7.60;3.53;;;;;;;;;;10290442;28;20084;-66
2023/10/30 18:25:45;;;;;;;5.40;3.65;;;;;;;;;;10295381;28;20620;-66
2023/10/30 18:30:44;;;;;;;7.10;3.72;;;;;;;;;;10285957;28;20080;-65
2023/10/30 18:35:42;;;;;;;9.07;3.90;;;;;;;;;;10292166;28;20501;-65
2023/10/30 18:40:46;;;;;;;7.47;3.45;;;;;;;;;;10292921;28;20079;-65
2023/10/30 18:45:44;;;;;;;10.00;5.85;;;;;;;;;;10290017;28;20068;-66
2023/10/30 18:50:43;;;;;;;8.32;4.22;;;;;;;;;;10290168;28;20513;-65
2023/10/30 18:55:41;;;;;;;8.07;3.15;;;;;;;;;;10292327;28;20077;-66
2023/10/30 19:00:41;;;;;;;5.70;3.95;;;;;;;;;;10286644;28;20084;-65
2023/10/30 19:05:39;;;;;;;7.03;2.83;;;;;;;;;;10292796;28;20106;-65
2023/10/30 19:10:37;;;;;;;6.22;3.53;;;;;;;;;;10291509;28;20068;-65
2023/10/30 19:15:37;;;;;;;9.48;3.85;;;;;;;;;;10290869;28;20500;-66
2023/10/30 19:20:37;;;;;;;4.93;3.90;;;;;;;;;;10287767;28;20080;-65
2023/10/30 19:25:35;;;;;;;6.55;3.17;;;;;;;;;;10281465;28;20068;-65
2023/10/30 19:30:34;;;;;;;8.57;3.08;;;;;;;;;;10288909;28;20064;-65
2023/10/30 19:35:32;;;;;;;5.88;3.08;;;;;;;;;;10288207;28;20455;-66
2023/10/30 19:40:32;;;;;;;5.72;2.97;;;;;;;;;;10272376;28;20075;-64
2023/10/30 19:45:30;;;;;;;8.85;3.08;;;;;;;;;;10277351;28;20068;-66
2023/10/30 19:50:29;;;;;;;9.32;3.65;;;;;;;;;;10284342;28;20061;-65
2023/10/30 19:55:31;;;;;;;6.28;3.45;;;;;;;;;;10288341;28;20071;-66
2023/10/30 20:00:30;;;;;;;9.27;2.80;;;;;;;;;;10285770;28;20073;-65
2023/10/30 20:05:32;;;;;;;4.90;3.00;;;;;;;;;;10277309;28;20269;-65
2023/10/30 20:10:31;;;;;;;5.55;3.47;;;;;;;;;;10282359;28;20092;-66
2023/10/30 20:15:37;;;;;;;7.70;3.03;;;;;;;;;;10282782;28;20083;-66
2023/10/30 20:20:35;;;;;;;2.90;2.58;;;;;;;;;;10287270;28;20486;-66
2023/10/30 20:25:33;;;;;;;4.45;2.80;;;;;;;;;;10288478;28;20076;-66
2023/10/30 20:30:32;;;;;;;6.85;3.50;;;;;;;;;;10280519;28;20068;-64
2023/10/30 20:35:32;;;;;;;8.73;2.60;;;;;;;;;;10273051;28;20507;-65
2023/10/30 20:40:30;;;;;;;4.70;2.88;;;;;;;;;;10290857;28;20083;-65
2023/10/30 20:45:29;;;;;;;5.75;3.15;;;;;;;;;;10294577;28;20072;-66
2023/10/30 20:50:27;;;;;;;5.53;2.80;;;;;;;;;;10302142;28;20502;-65
2023/10/30 20:55:26;;;;;;;5.75;3.70;;;;;;;;;;10294869;28;20086;-65
2023/10/30 21:00:25;;;;;;;6.65;3.17;;;;;;;;;;10294870;28;20493;-65
2023/10/30 21:05:23;;;;;;;5.68;3.42;;;;;;;;;;10297284;28;20539;-64
2023/10/30 21:10:21;;;;;;;5.47;2.65;;;;;;;;;;10291681;28;20572;-65
2023/10/30 21:15:21;;;;;;;3.63;2.00;;;;;;;;;;10296211;28;20166;-64
2023/10/30 21:20:20;;;;;;;4.88;2.35;;;;;;;;;;10295510;28;20158;-65
2023/10/30 21:25:18;;;;;;;5.63;2.05;;;;;;;;;;10296982;28;20064;-66
2023/10/30 21:30:16;;;;;;;6.07;2.85;;;;;;;;;;10296240;28;20076;-65
2023/10/30 21:35:17;;;;;;;7.65;2.10;;;;;;;;;;10291173;28;20466;-65
2023/10/30 21:40:15;;;;;;;5.65;2.42;;;;;;;;;;10297249;28;20087;-66
2023/10/30 21:45:17;;;;;;;8.15;2.28;;;;;;;;;;10294215;28;20074;-67
2023/10/30 21:50:17;;;;;;;8.35;2.65;;;;;;;;;;10293466;28;20072;-65
2023/10/30 21:55:15;;;;;;;2.80;1.70;;;;;;;;;;10294445;28;20076;-65
2023/10/30 22:00:14;;;;;;;6.03;2.50;;;;;;;;;;10294833;28;20511;-65
2023/10/30 22:05:12;;;;;;;4.05;2.28;;;;;;;;;;10293793;28;20170;-66
2023/10/30 22:10:15;;;;;;;4.40;2.28;;;;;;;;;;10293508;28;20077;-65
2023/10/30 22:15:13;;;;;;;4.70;2.33;;;;;;;;;;10294794;28;20072;-65
2023/10/30 22:20:12;;;;;;;2.63;2.00;;;;;;;;;;10293213;28;20088;-66
2023/10/30 22:25:11;;;;;;;2.92;1.83;;;;;;;;;;10294040;28;20064;-65
2023/10/30 22:30:11;;;;;;;9.68;2.50;;;;;;;;;;10288657;28;20065;-65
2023/10/30 22:35:09;;;;;;;7.93;2.65;;;;;;;;;;10293281;28;20529;-65
2023/10/30 22:40:11;;;;;;;3.50;2.20;;;;;;;;;;10291967;28;20510;-64
2023/10/30 22:45:11;;;;;;;5.07;2.30;;;;;;;;;;10292207;28;20076;-65
2023/10/30 22:50:09;;;;;;;2.10;1.85;;;;;;;;;;10293547;28;20083;-65
2023/10/30 22:55:08;;;;;;;4.07;2.38;;;;;;;;;;10290452;28;20068;-64
2023/10/30 23:00:13;;;;;;;5.95;2.00;;;;;;;;;;10290561;28;20091;-65
2023/10/30 23:05:12;;;;;;;8.52;2.53;;;;;;;;;;10291083;28;20538;-65
2023/10/30 23:10:11;;;;;;;4.82;2.40;;;;;;;;;;10289812;28;20091;-66
2023/10/30 23:15:09;;;;;;;3.20;2.00;;;;;;;;;;10290919;28;20080;-65
2023/10/30 23:20:09;;;;;;;4.22;1.98;;;;;;;;;;10293782;28;20088;-65
2023/10/30 23:25:09;;;;;;;8.05;2.80;;;;;;;;;;10291581;28;20111;-65
2023/10/30 23:30:08;;;;;;;3.92;2.00;;;;;;;;;;10289754;28;20080;-65
2023/10/30 23:35:07;;;;;;;6.47;2.42;;;;;;;;;;10291459;28;20076;-65
2023/10/30 23:40:06;;;;;;;7.00;2.28;;;;;;;;;;10290387;28;20064;-65
2023/10/30 23:45:07;;;;;;;11.20;2.30;;;;;;;;;;10291708;28;20081;-65
2023/10/30 23:50:06;;;;;;;3.72;1.80;;;;;;;;;;10287254;28;20068;-65
2023/10/30 23:55:04;;;;;;;4.38;2.13;;;;;;;;;;10290685;28;20075;-65
